Time;durP1;ratioP1;P1;durP2;ratioP2;P2;SDS_P1;SDS_P2;PMS_P1;PMS_P2;Temp;Humidity;BMP_temperature;BMP_pressure;BME280_temperature;BME280_humidity;BME280_pressure;Samples;Min_cycle;Max_cycle;Signal;HPM_P1;HPM_P2
2021/07/02 00:01:17;;;;;;;26.40;15.90;;;14.20;99.90;;;;;;4993229;28;20259;-66
2021/07/02 00:03:42;;;;;;;26.57;15.77;;;14.20;99.90;;;;;;4993051;28;20511;-67
2021/07/02 00:06:08;;;;;;;25.50;16.07;;;14.30;99.90;;;;;;4992558;28;20220;-67
2021/07/02 00:08:34;;;;;;;25.60;15.53;;;14.30;99.90;;;;;;4992798;28;20177;-66
2021/07/02 00:11:00;;;;;;;25.57;17.60;;;14.20;99.90;;;;;;4992728;28;20180;-66
2021/07/02 00:13:25;;;;;;;22.40;15.47;;;14.20;99.90;;;;;;4992726;28;20256;-66
2021/07/02 00:15:51;;;;;;;25.33;15.70;;;14.20;99.90;;;;;;4992660;28;20279;-67
2021/07/02 00:18:16;;;;;;;28.77;16.50;;;14.20;99.90;;;;;;4992573;28;20219;-67
2021/07/02 00:20:42;;;;;;;24.53;15.37;;;14.20;99.90;;;;;;4992614;28;20200;-65
2021/07/02 00:23:08;;;;;;;24.13;15.73;;;14.20;99.90;;;;;;4992589;28;20208;-66
2021/07/02 00:25:37;;;;;;;31.13;15.97;;;14.20;99.90;;;;;;4992617;28;20282;-67
2021/07/02 00:28:03;;;;;;;21.47;14.13;;;14.20;99.90;;;;;;4992130;28;20208;-66
2021/07/02 00:30:29;;;;;;;24.80;14.50;;;14.30;99.90;;;;;;4992585;28;20173;-66
2021/07/02 00:32:54;;;;;;;26.53;15.90;;;14.30;99.90;;;;;;4992288;28;20181;-66
2021/07/02 00:35:20;;;;;;;26.07;16.17;;;14.30;99.90;;;;;;4992626;28;20201;-66
2021/07/02 00:37:45;;;;;;;21.93;14.87;;;14.20;99.90;;;;;;4991978;28;20184;-66
2021/07/02 00:40:11;;;;;;;22.90;14.97;;;14.10;99.90;;;;;;4992524;28;20629;-67
2021/07/02 00:42:37;;;;;;;21.67;14.10;;;14.10;99.90;;;;;;4992219;28;20176;-66
2021/07/02 00:45:03;;;;;;;29.20;16.33;;;14.10;99.90;;;;;;4992251;28;20702;-66
2021/07/02 00:47:29;;;;;;;29.13;15.53;;;14.20;99.90;;;;;;4991960;28;20264;-66
2021/07/02 00:49:54;;;;;;;27.13;16.03;;;14.10;99.90;;;;;;4991154;28;20694;-66
2021/07/02 00:52:20;;;;;;;31.97;16.00;;;14.10;99.90;;;;;;4992197;28;20538;-66
2021/07/02 00:54:46;;;;;;;29.63;15.93;;;14.20;99.90;;;;;;4992273;28;20207;-66
2021/07/02 00:57:12;;;;;;;35.60;16.90;;;14.10;99.90;;;;;;4991905;28;20192;-66
2021/07/02 00:59:41;;;;;;;26.83;15.73;;;14.10;99.90;;;;;;4992009;28;20204;-66
2021/07/02 01:02:06;;;;;;;28.17;14.83;;;14.10;99.90;;;;;;4992221;28;20169;-67
2021/07/02 01:04:32;;;;;;;27.57;17.10;;;14.10;99.90;;;;;;4992064;28;20248;-66
2021/07/02 01:06:59;;;;;;;31.80;17.73;;;14.10;99.90;;;;;;4991606;28;20678;-67
2021/07/02 01:09:25;;;;;;;24.63;16.60;;;14.10;99.90;;;;;;4991437;28;20316;-66
2021/07/02 01:11:52;;;;;;;32.43;16.37;;;14.10;99.90;;;;;;4992188;28;20658;-66
2021/07/02 01:14:17;;;;;;;30.20;16.70;;;14.10;99.90;;;;;;4992194;28;20177;-66
2021/07/02 01:16:43;;;;;;;31.73;16.63;;;14.10;99.90;;;;;;4994835;28;20204;-67
2021/07/02 01:19:09;;;;;;;27.53;15.97;;;14.10;99.90;;;;;;5003657;28;20566;-67
2021/07/02 01:21:34;;;;;;;32.20;16.50;;;14.10;99.90;;;;;;5006093;28;20187;-67
2021/07/02 01:24:01;;;;;;;31.47;16.67;;;14.10;99.90;;;;;;5000530;28;20180;-65
2021/07/02 01:26:29;;;;;;;30.43;16.30;;;14.10;99.90;;;;;;4991507;28;20207;-66
2021/07/02 01:28:54;;;;;;;30.17;15.77;;;14.10;99.90;;;;;;4991860;28;20180;-66
2021/07/02 01:31:20;;;;;;;25.87;15.53;;;14.10;99.90;;;;;;4991662;28;20181;-66
2021/07/02 01:33:45;;;;;;;30.43;16.37;;;14.00;99.90;;;;;;4991921;28;20177;-66
2021/07/02 01:36:23;;;;;;;29.67;16.27;;;14.00;99.90;;;;;;4991432;28;20287;-66
2021/07/02 01:38:49;;;;;;;22.47;15.33;;;14.00;99.90;;;;;;4992961;28;20180;-66
2021/07/02 01:41:15;;;;;;;25.57;16.90;;;14.00;99.90;;;;;;4995518;28;20698;-66
2021/07/02 01:43:41;;;;;;;27.80;15.93;;;14.00;99.90;;;;;;4995519;28;20251;-66
2021/07/02 01:46:07;;;;;;;25.80;15.57;;;14.00;99.90;;;;;;4995311;28;20709;-66
2021/07/02 01:48:33;;;;;;;31.27;16.33;;;14.00;99.90;;;;;;4995407;28;20172;-66
2021/07/02 01:50:59;;;;;;;27.60;14.67;;;13.90;99.90;;;;;;4994077;28;20180;-66
2021/07/02 01:53:25;;;;;;;34.40;16.63;;;14.00;99.90;;;;;;4995647;28;20177;-66
2021/07/02 01:55:51;;;;;;;28.40;15.07;;;14.00;99.90;;;;;;4993533;28;20193;-66
2021/07/02 01:58:17;;;;;;;26.77;15.33;;;14.00;99.90;;;;;;4995543;28;20694;-67
2021/07/02 02:00:42;;;;;;;37.43;16.17;;;13.90;99.90;;;;;;4995284;28;20288;-66
2021/07/02 02:03:08;;;;;;;37.13;15.77;;;13.90;99.90;;;;;;4994045;28;20173;-66
2021/07/02 02:05:34;;;;;;;31.23;17.33;;;13.90;99.90;;;;;;4994832;28;20279;-67
2021/07/02 02:07:59;;;;;;;24.30;16.00;;;13.90;99.90;;;;;;4995167;28;20181;-66
2021/07/02 02:10:25;;;;;;;27.73;15.97;;;13.90;99.90;;;;;;4994284;28;20173;-69
2021/07/02 02:12:51;;;;;;;26.70;15.13;;;13.90;99.90;;;;;;4996477;28;20177;-70
2021/07/02 02:15:17;;;;;;;29.27;15.30;;;13.90;99.90;;;;;;4994926;28;20208;-71
2021/07/02 02:17:42;;;;;;;30.23;15.70;;;13.90;99.90;;;;;;4995657;28;20183;-71
2021/07/02 02:20:10;;;;;;;23.43;16.87;;;13.80;99.90;;;;;;4996617;28;20681;-71
2021/07/02 02:22:36;;;;;;;26.87;16.03;;;13.80;99.90;;;;;;4996107;28;20173;-70
2021/07/02 02:25:02;;;;;;;32.67;17.73;;;13.80;99.90;;;;;;4996668;28;20223;-71
2021/07/02 02:27:28;;;;;;;23.43;15.87;;;13.80;99.90;;;;;;4996157;28;20200;-71
2021/07/02 02:29:54;;;;;;;26.07;16.83;;;13.80;99.90;;;;;;4996562;28;20239;-70
2021/07/02 02:32:19;;;;;;;28.27;18.30;;;13.80;99.90;;;;;;4995856;28;20247;-69
2021/07/02 02:34:46;;;;;;;26.97;18.23;;;13.80;99.90;;;;;;4996490;28;20661;-72
2021/07/02 02:37:12;;;;;;;30.73;19.43;;;13.80;99.90;;;;;;4995667;28;20285;-69
2021/07/02 02:39:38;;;;;;;26.67;18.33;;;13.80;99.90;;;;;;4996558;28;20283;-71
2021/07/02 02:42:04;;;;;;;30.60;18.13;;;13.80;99.90;;;;;;4996337;28;20259;-71
2021/07/02 02:44:30;;;;;;;28.97;15.90;;;13.80;99.90;;;;;;4996286;28;20180;-69
2021/07/02 02:46:56;;;;;;;23.07;15.67;;;13.80;99.90;;;;;;4995366;28;20193;-72
2021/07/02 02:49:22;;;;;;;30.60;17.20;;;13.70;99.90;;;;;;4995563;28;20236;-70
2021/07/02 02:51:47;;;;;;;27.47;16.33;;;13.70;99.90;;;;;;4995474;28;20200;-70
2021/07/02 02:54:13;;;;;;;24.30;15.80;;;13.70;99.90;;;;;;4995884;28;20642;-71
2021/07/02 02:57:03;;;;;;;23.57;16.50;;;13.60;99.90;;;;;;4995530;28;20614;-72
2021/07/02 02:59:24;;;;;;;42.23;16.57;;;13.60;99.90;;;;;;4995406;28;20204;-70
2021/07/02 03:01:50;;;;;;;29.53;16.93;;;13.60;99.90;;;;;;4995489;28;20179;-70
2021/07/02 03:04:15;;;;;;;24.40;17.07;;;13.50;99.90;;;;;;4995864;28;20240;-71
2021/07/02 03:06:41;;;;;;;28.93;19.90;;;13.50;99.90;;;;;;4994828;28;20216;-70
2021/07/02 03:09:07;;;;;;;28.17;19.63;;;13.50;99.90;;;;;;4995422;28;20661;-69
2021/07/02 03:11:32;;;;;;;28.97;20.67;;;13.50;99.90;;;;;;4994811;28;20184;-70
2021/07/02 03:13:58;;;;;;;30.47;18.73;;;13.50;99.90;;;;;;4995639;28;20173;-71
2021/07/02 03:16:23;;;;;;;30.73;17.37;;;13.50;99.90;;;;;;4995112;28;20264;-73
2021/07/02 03:18:49;;;;;;;28.67;18.53;;;13.40;99.90;;;;;;4994611;28;20179;-72
2021/07/02 03:21:15;;;;;;;26.50;18.37;;;13.30;99.90;;;;;;4994938;28;20177;-70
2021/07/02 03:23:42;;;;;;;22.57;17.20;;;13.30;99.90;;;;;;4995629;28;20582;-70
2021/07/02 03:26:07;;;;;;;23.40;15.80;;;13.20;99.90;;;;;;4995095;28;20678;-72
2021/07/02 03:28:35;;;;;;;25.40;16.50;;;13.20;99.90;;;;;;4995268;28;20173;-69
2021/07/02 03:31:01;;;;;;;26.80;17.63;;;13.20;99.90;;;;;;4995226;28;20200;-69
2021/07/02 03:33:27;;;;;;;29.63;16.50;;;13.10;99.90;;;;;;4995879;28;20669;-70
2021/07/02 03:35:52;;;;;;;31.07;17.57;;;13.00;99.90;;;;;;4994785;28;20288;-70
2021/07/02 03:38:18;;;;;;;28.07;16.67;;;13.00;99.90;;;;;;4995408;28;20177;-70
2021/07/02 03:40:44;;;;;;;23.53;16.47;;;12.90;99.90;;;;;;4994955;28;20254;-72
2021/07/02 03:43:10;;;;;;;23.73;15.20;;;12.90;99.90;;;;;;4994972;28;20169;-73
2021/07/02 03:45:35;;;;;;;25.77;15.57;;;12.90;99.90;;;;;;4993693;28;20203;-73
2021/07/02 03:48:01;;;;;;;23.57;16.40;;;12.80;99.90;;;;;;4995156;28;20639;-72
2021/07/02 03:50:27;;;;;;;24.97;22.27;;;12.80;99.90;;;;;;4995240;28;20667;-72
2021/07/02 03:52:53;;;;;;;23.50;15.00;;;12.80;99.90;;;;;;4994062;28;20260;-66
2021/07/02 03:55:18;;;;;;;26.00;16.00;;;12.70;99.90;;;;;;4993175;28;20821;-68
2021/07/02 03:57:44;;;;;;;29.83;17.50;;;12.70;99.90;;;;;;4992602;28;20180;-68
2021/07/02 04:00:10;;;;;;;22.80;15.53;;;12.70;99.90;;;;;;4993052;28;20725;-66
2021/07/02 04:02:36;;;;;;;26.60;16.27;;;12.70;99.90;;;;;;4991275;28;20185;-68
2021/07/02 04:05:02;;;;;;;23.27;16.67;;;12.70;99.90;;;;;;4991586;28;20169;-66
2021/07/02 04:07:28;;;;;;;27.80;16.50;;;12.70;99.90;;;;;;4992621;28;20250;-67
2021/07/02 04:09:54;;;;;;;24.13;15.63;;;12.80;99.90;;;;;;4993293;28;20181;-67
2021/07/02 04:12:19;;;;;;;26.17;15.60;;;12.80;99.90;;;;;;4992490;28;20193;-68
2021/07/02 04:14:45;;;;;;;24.50;15.60;;;12.80;99.90;;;;;;4993024;28;20165;-68
2021/07/02 04:17:11;;;;;;;28.23;16.00;;;12.80;99.90;;;;;;4992337;28;20208;-67
2021/07/02 04:19:37;;;;;;;20.20;14.40;;;12.90;99.90;;;;;;4991308;28;20200;-67
2021/07/02 04:22:04;;;;;;;24.33;15.83;;;12.90;99.90;;;;;;4992664;28;20176;-67
2021/07/02 04:24:30;;;;;;;20.10;14.97;;;12.90;99.90;;;;;;4992909;28;20256;-68
2021/07/02 04:26:55;;;;;;;22.47;14.20;;;12.90;99.90;;;;;;4992056;28;20607;-68
2021/07/02 04:29:21;;;;;;;27.20;15.47;;;12.80;99.90;;;;;;4992711;28;20183;-68
2021/07/02 04:31:47;;;;;;;28.13;14.80;;;12.80;99.90;;;;;;4992471;28;20211;-68
2021/07/02 04:34:13;;;;;;;24.93;16.10;;;12.80;99.90;;;;;;4992653;28;20581;-68
2021/07/02 04:36:38;;;;;;;21.30;15.37;;;12.80;99.90;;;;;;4990837;28;20207;-68
2021/07/02 04:39:04;;;;;;;30.67;15.53;;;12.70;99.90;;;;;;4992316;28;20288;-68
2021/07/02 04:41:30;;;;;;;23.53;15.53;;;12.60;99.90;;;;;;4992296;28;20173;-68
2021/07/02 04:43:55;;;;;;;24.40;15.93;;;12.50;99.90;;;;;;4992395;28;20173;-67
2021/07/02 04:46:22;;;;;;;21.03;15.27;;;12.60;99.90;;;;;;4992023;28;20667;-68
2021/07/02 04:48:48;;;;;;;26.07;15.40;;;12.50;99.90;;;;;;4991535;28;20549;-68
2021/07/02 04:51:14;;;;;;;23.03;14.03;;;12.60;99.90;;;;;;4991829;28;20181;-68
2021/07/02 04:53:40;;;;;;;20.83;15.50;;;12.70;99.90;;;;;;4992021;28;20177;-68
2021/07/02 04:56:06;;;;;;;28.30;15.90;;;12.90;99.90;;;;;;4991900;28;20295;-68
2021/07/02 04:58:31;;;;;;;26.37;16.30;;;13.00;99.90;;;;;;4992103;28;20172;-68
2021/07/02 05:00:57;;;;;;;22.37;15.23;;;13.00;99.90;;;;;;4990263;28;20208;-67
2021/07/02 05:03:23;;;;;;;24.67;15.37;;;13.30;99.90;;;;;;4992268;28;20173;-67
2021/07/02 05:05:49;;;;;;;20.27;14.77;;;13.40;99.90;;;;;;4991363;28;20216;-67
2021/07/02 05:08:14;;;;;;;26.57;16.73;;;13.50;99.90;;;;;;4992612;28;20821;-65
2021/07/02 05:10:42;;;;;;;29.50;16.90;;;13.80;99.90;;;;;;4992335;28;20212;-65
2021/07/02 05:13:08;;;;;;;24.27;16.17;;;13.80;99.90;;;;;;4993370;28;20184;-67
2021/07/02 05:15:34;;;;;;;18.33;13.77;;;13.90;99.90;;;;;;4996595;28;20557;-68
2021/07/02 05:17:59;;;;;;;25.30;15.23;;;13.90;99.90;;;;;;4996170;28;20238;-68
2021/07/02 05:20:25;;;;;;;23.30;15.70;;;14.10;99.90;;;;;;4996112;28;20204;-68
2021/07/02 05:22:50;;;;;;;23.90;16.07;;;14.20;99.90;;;;;;5014337;28;20187;-66
2021/07/02 05:25:18;;;;;;;22.20;15.47;;;14.40;99.90;;;;;;5016528;28;20196;-65
2021/07/02 05:27:44;;;;;;;23.77;16.20;;;14.60;99.90;;;;;;5005121;28;20259;-67
2021/07/02 05:30:10;;;;;;;24.93;15.63;;;15.00;99.90;;;;;;4995789;28;20616;-67
2021/07/02 05:32:36;;;;;;;20.57;15.87;;;15.40;99.90;;;;;;4995830;28;20199;-68
2021/07/02 05:35:02;;;;;;;16.33;13.37;;;15.80;99.90;;;;;;4995487;28;20181;-67
2021/07/02 05:37:27;;;;;;;15.10;12.83;;;16.30;99.90;;;;;;4995439;28;20260;-65
2021/07/02 05:39:54;;;;;;;13.33;11.07;;;16.80;99.90;;;;;;4995678;28;20698;-65
2021/07/02 05:42:23;;;;;;;11.60;10.43;;;17.10;99.90;;;;;;4995786;28;20196;-65
2021/07/02 05:44:49;;;;;;;12.80;10.50;;;17.40;99.90;;;;;;4995444;28;20259;-66
2021/07/02 05:47:15;;;;;;;13.30;10.10;;;17.80;99.90;;;;;;4995164;28;20737;-65
2021/07/02 05:49:40;;;;;;;10.83;9.73;;;18.10;99.90;;;;;;4995573;28;20169;-66
2021/07/02 05:52:06;;;;;;;11.13;10.03;;;18.20;99.90;;;;;;5010314;28;20239;-65
2021/07/02 05:54:32;;;;;;;10.53;9.63;;;18.30;99.90;;;;;;4995450;28;20176;-66
2021/07/02 05:56:58;;;;;;;10.23;9.37;;;18.50;99.90;;;;;;4994887;28;20201;-65
2021/07/02 05:59:24;;;;;;;11.57;9.27;;;18.90;99.90;;;;;;4993355;28;20193;-65
2021/07/02 06:01:49;;;;;;;15.30;10.07;;;19.10;99.90;;;;;;4994978;28;20184;-65
2021/07/02 06:04:15;;;;;;;10.37;9.57;;;19.30;99.90;;;;;;4995131;28;20195;-65
2021/07/02 06:06:41;;;;;;;10.77;9.77;;;19.40;99.90;;;;;;4994821;28;20211;-65
2021/07/02 06:09:06;;;;;;;11.50;9.60;;;19.30;99.90;;;;;;4994951;28;20219;-65
2021/07/02 06:11:32;;;;;;;11.17;10.17;;;19.20;99.90;;;;;;4994399;28;20173;-65
2021/07/02 06:13:57;;;;;;;10.07;9.23;;;19.10;99.90;;;;;;4993180;28;20177;-65
2021/07/02 06:16:23;;;;;;;10.00;9.17;;;19.10;99.90;;;;;;4994812;28;20193;-65
2021/07/02 06:18:49;;;;;;;10.43;9.43;;;19.00;99.90;;;;;;4994529;28;20188;-65
2021/07/02 06:21:14;;;;;;;10.33;9.23;;;18.70;99.90;;;;;;4994795;28;20176;-66
2021/07/02 06:23:40;;;;;;;10.47;9.00;;;18.70;99.90;;;;;;4994755;28;20181;-66
2021/07/02 06:26:07;;;;;;;10.83;9.73;;;18.80;99.90;;;;;;4993120;28;20196;-66
2021/07/02 06:28:33;;;;;;;10.90;9.80;;;18.80;99.90;;;;;;4994468;28;20208;-66
2021/07/02 06:30:59;;;;;;;10.97;9.97;;;18.90;99.90;;;;;;4994716;28;20164;-66
2021/07/02 06:33:25;;;;;;;11.17;9.90;;;19.20;99.90;;;;;;4994278;28;20172;-66
2021/07/02 06:35:52;;;;;;;10.33;9.33;;;19.70;99.90;;;;;;4994328;28;20192;-66
2021/07/02 06:38:19;;;;;;;10.97;10.17;;;20.00;99.90;;;;;;4994489;28;20181;-66
2021/07/02 06:40:45;;;;;;;10.80;9.57;;;20.30;99.90;;;;;;4994527;28;20289;-65
2021/07/02 06:43:10;;;;;;;10.80;9.70;;;20.60;99.90;;;;;;4994420;28;20176;-66
2021/07/02 06:45:37;;;;;;;8.90;8.00;;;20.70;99.90;;;;;;4994300;28;20693;-66
2021/07/02 06:48:05;;;;;;;8.57;7.87;;;20.80;99.90;;;;;;4994192;28;20181;-66
2021/07/02 06:50:35;;;;;;;11.37;7.77;;;20.80;99.90;;;;;;4994635;28;20544;-66
2021/07/02 06:53:03;;;;;;;12.73;8.87;;;20.70;99.90;;;;;;4993393;28;20173;-66
2021/07/02 06:55:29;;;;;;;8.13;7.33;;;20.90;99.90;;;;;;4993124;28;20689;-67
2021/07/02 06:57:54;;;;;;;8.50;7.70;;;21.00;99.90;;;;;;4994212;28;20176;-66
2021/07/02 07:00:21;;;;;;;9.20;8.40;;;21.00;99.90;;;;;;4993386;28;20754;-66
2021/07/02 07:02:47;;;;;;;7.73;7.03;;;21.10;99.90;;;;;;4993929;28;20267;-66
2021/07/02 07:05:14;;;;;;;8.27;7.60;;;21.20;99.90;;;;;;4994073;28;20263;-66
2021/07/02 07:07:40;;;;;;;8.20;7.50;;;21.20;99.90;;;;;;4993642;28;20272;-65
2021/07/02 07:10:06;;;;;;;8.87;7.27;;;21.30;99.90;;;;;;4993644;28;20255;-66
2021/07/02 07:12:32;;;;;;;9.03;7.20;;;21.30;99.90;;;;;;4992350;28;20177;-66
2021/07/02 07:14:58;;;;;;;9.00;7.63;;;21.00;99.90;;;;;;4993936;28;20177;-66
2021/07/02 07:17:24;;;;;;;8.30;7.50;;;20.90;99.90;;;;;;4991799;28;20181;-65
2021/07/02 07:19:50;;;;;;;8.00;7.30;;;20.90;99.90;;;;;;4993857;28;20239;-65
2021/07/02 07:22:15;;;;;;;8.40;7.60;;;21.00;99.90;;;;;;4993859;28;20663;-65
2021/07/02 07:24:41;;;;;;;7.90;7.30;;;21.10;99.90;;;;;;4992892;28;20185;-66
2021/07/02 07:27:07;;;;;;;9.03;8.23;;;21.10;99.90;;;;;;4993377;28;20201;-66
2021/07/02 07:29:32;;;;;;;7.47;6.87;;;21.10;99.90;;;;;;5007621;22;20678;-66
2021/07/02 07:32:00;;;;;;;7.47;6.87;;;21.30;99.90;;;;;;5011906;28;20206;-66
2021/07/02 07:34:38;;;;;;;8.20;7.13;;;21.60;99.90;;;;;;5011635;28;20184;-68
2021/07/02 07:37:11;;;;;;;7.00;6.50;;;21.80;99.90;;;;;;5011866;28;20222;-66
2021/07/02 07:39:37;;;;;;;6.45;5.93;;;21.90;99.90;;;;;;5011541;28;20223;-66
2021/07/02 07:42:04;;;;;;;6.63;6.23;;;21.70;99.90;;;;;;5012824;28;20168;-66
2021/07/02 07:44:30;;;;;;;6.43;5.87;;;21.70;99.90;;;;;;5013055;28;20179;-66
2021/07/02 07:46:55;;;;;;;6.93;6.23;;;21.90;99.90;;;;;;5011119;28;20180;-67
2021/07/02 07:49:25;;;;;;;6.78;6.28;;;22.00;99.90;;;;;;5011585;28;20195;-66
2021/07/02 07:54:20;;;;;;;7.13;6.60;;;22.10;99.90;;;;;;5013187;28;20174;-66
2021/07/02 07:56:52;;;;;;;7.10;6.20;;;22.30;99.90;;;;;;5012459;28;20183;-66
2021/07/02 07:59:19;;;;;;;6.25;5.85;;;22.40;99.90;;;;;;5012603;28;20196;-67
2021/07/02 08:01:45;;;;;;;6.82;6.28;;;22.60;99.90;;;;;;5012508;28;20184;-66
2021/07/02 08:04:13;;;;;;;7.22;6.63;;;22.70;99.90;;;;;;5012704;28;20211;-66
2021/07/02 08:06:40;;;;;;;6.45;5.95;;;22.90;99.90;;;;;;5012383;28;20270;-66
2021/07/02 08:09:05;;;;;;;6.65;6.10;;;23.10;99.90;;;;;;5012352;28;20196;-66
2021/07/02 08:11:31;;;;;;;8.23;7.43;;;23.20;99.90;;;;;;5011913;28;20276;-66
2021/07/02 08:13:56;;;;;;;6.55;6.15;;;23.20;99.90;;;;;;5011657;28;20629;-67
2021/07/02 08:16:23;;;;;;;7.15;6.55;;;23.20;99.90;;;;;;5012404;28;20172;-66
2021/07/02 08:18:49;;;;;;;6.25;5.75;;;23.10;99.90;;;;;;5012128;28;20626;-65
2021/07/02 08:21:15;;;;;;;6.82;6.25;;;22.90;99.90;;;;;;5012294;28;20172;-66
2021/07/02 08:23:41;;;;;;;6.85;6.22;;;22.90;99.90;;;;;;5012328;28;20638;-65
2021/07/02 08:26:07;;;;;;;6.85;6.45;;;22.80;99.90;;;;;;5012102;28;20168;-66
2021/07/02 08:31:17;;;;;;;6.47;6.13;;;22.60;99.90;;;;;;5012070;28;20195;-66
2021/07/02 08:33:43;;;;;;;6.57;6.13;;;22.40;99.90;;;;;;5012117;28;20591;-67
2021/07/02 08:36:09;;;;;;;7.25;6.82;;;22.40;99.90;;;;;;5011981;28;20184;-65
2021/07/02 08:38:34;;;;;;;6.43;5.93;;;22.50;99.90;;;;;;5012165;28;20589;-66
2021/07/02 08:41:01;;;;;;;6.88;6.28;;;22.60;99.90;;;;;;5011780;28;20287;-66
2021/07/02 08:43:26;;;;;;;6.90;6.38;;;22.80;99.90;;;;;;5012012;28;20172;-66
2021/07/02 08:45:52;;;;;;;5.72;5.32;;;22.90;99.90;;;;;;5011622;28;20223;-67
2021/07/02 08:48:20;;;;;;;5.90;5.50;;;23.30;99.90;;;;;;5012039;28;20768;-65
2021/07/02 08:50:46;;;;;;;5.53;5.07;;;23.60;99.90;;;;;;5011774;28;20290;-67
2021/07/02 08:53:11;;;;;;;6.45;5.88;;;24.00;99.90;;;;;;5011914;28;20169;-67
2021/07/02 08:55:39;;;;;;;6.20;5.70;;;24.10;99.90;;;;;;5011619;28;20701;-66
2021/07/02 08:58:12;;;;;;;5.78;5.28;;;24.40;99.90;;;;;;5009595;28;20187;-65
2021/07/02 09:00:38;;;;;;;7.10;6.50;;;24.40;99.90;;;;;;5011461;28;20568;-66
2021/07/02 09:03:27;;;;;;;6.68;6.20;;;24.50;99.90;;;;;;5011621;28;20165;-67
2021/07/02 09:05:53;;;;;;;6.88;6.20;;;24.60;99.90;;;;;;5011755;28;20544;-66
2021/07/02 09:08:21;;;;;;;8.02;7.43;;;24.60;99.90;;;;;;5011651;28;20200;-66
2021/07/02 09:10:47;;;;;;;7.47;6.63;;;24.80;99.90;;;;;;5010263;28;20204;-66
2021/07/02 09:13:15;;;;;;;6.97;6.38;;;24.90;99.90;;;;;;5010839;28;20199;-67
2021/07/02 09:15:46;;;;;;;6.47;5.88;;;24.40;99.90;;;;;;5009985;28;20172;-66
2021/07/02 09:18:13;;;;;;;7.05;6.38;;;23.90;99.90;;;;;;5010254;28;20176;-66
2021/07/02 09:20:40;;;;;;;6.53;6.13;;;23.80;99.90;;;;;;5011412;28;20211;-66
2021/07/02 09:23:13;;;;;;;7.55;7.05;;;23.80;99.90;;;;;;5011622;28;20254;-66
2021/07/02 09:25:51;;;;;;;8.65;7.15;;;24.00;99.90;;;;;;5011315;28;20255;-66
2021/07/02 09:28:19;;;;;;;6.30;5.80;;;23.90;99.90;;;;;;5011569;28;20164;-65
2021/07/02 09:30:49;;;;;;;6.75;6.25;;;23.80;99.90;;;;;;5011353;28;20298;-66
2021/07/02 09:33:18;;;;;;;6.80;6.28;;;24.00;99.90;;;;;;5011522;28;20218;-65
2021/07/02 09:35:53;;;;;;;7.10;6.20;;;24.00;99.90;;;;;;5009915;28;20180;-66
2021/07/02 09:38:30;;;;;;;6.70;6.20;;;23.70;99.90;;;;;;5011621;28;20234;-66
2021/07/02 09:40:56;;;;;;;7.30;6.63;;;23.50;99.90;;;;;;5011238;28;20206;-66
2021/07/02 09:43:26;;;;;;;7.50;6.80;;;23.00;99.90;;;;;;5011330;28;20172;-66
2021/07/02 09:45:54;;;;;;;7.85;7.05;;;22.90;99.90;;;;;;5010986;28;20242;-66
2021/07/02 09:48:26;;;;;;;8.68;7.10;;;22.80;99.90;;;;;;5011506;28;20191;-65
2021/07/02 09:50:57;;;;;;;8.55;7.20;;;22.90;99.90;;;;;;5009967;28;20196;-66
2021/07/02 09:53:29;;;;;;;8.40;7.70;;;23.00;99.90;;;;;;5011109;28;20179;-67
2021/07/02 09:55:59;;;;;;;9.38;8.57;;;23.30;99.90;;;;;;5011194;28;20180;-66
2021/07/02 09:58:28;;;;;;;8.48;7.78;;;23.60;99.90;;;;;;5011344;28;20180;-66
2021/07/02 10:00:55;;;;;;;8.65;7.85;;;23.60;99.90;;;;;;5014280;28;20584;-66
2021/07/02 10:03:34;;;;;;;8.07;7.28;;;23.90;99.90;;;;;;5014879;28;20218;-66
2021/07/02 10:06:01;;;;;;;8.45;7.75;;;24.60;99.90;;;;;;5014723;28;20180;-66
2021/07/02 10:08:31;;;;;;;7.30;6.80;;;24.90;99.90;;;;;;5014925;28;20183;-66
2021/07/02 10:10:59;;;;;;;7.95;7.25;;;25.40;99.90;;;;;;5013913;28;20192;-66
2021/07/02 10:13:27;;;;;;;8.68;7.88;;;25.70;99.90;;;;;;5013785;28;20195;-66
2021/07/02 10:15:54;;;;;;;7.50;6.95;;;25.80;99.90;;;;;;5014384;28;20259;-66
2021/07/02 10:18:23;;;;;;;9.10;8.18;;;25.80;99.90;;;;;;5014097;28;20657;-66
2021/07/02 10:20:48;;;;;;;7.78;7.10;;;25.70;99.90;;;;;;5014641;28;20208;-67
2021/07/02 10:23:31;;;;;;;8.82;7.93;;;25.50;99.90;;;;;;5014443;28;20172;-66
2021/07/02 10:25:57;;;;;;;8.60;7.78;;;25.40;99.90;;;;;;5014333;28;20226;-65
2021/07/02 10:28:24;;;;;;;8.60;7.80;;;25.30;99.90;;;;;;5014390;28;20574;-66
2021/07/02 10:30:50;;;;;;;8.07;7.28;;;25.20;99.90;;;;;;5014174;28;20215;-66
2021/07/02 10:33:19;;;;;;;8.13;7.45;;;25.20;99.90;;;;;;5014281;28;20180;-66
2021/07/02 10:36:08;;;;;;;10.13;9.23;;;25.30;99.90;;;;;;5013741;28;20585;-65
2021/07/02 10:38:38;;;;;;;8.93;8.15;;;25.60;99.90;;;;;;5014152;28;20725;-67
2021/07/02 10:41:14;;;;;;;11.65;8.00;;;26.20;99.90;;;;;;5013878;28;20216;-67
2021/07/02 10:44:09;;;;;;;8.70;7.47;;;26.50;99.90;;;;;;5013989;28;20202;-67
2021/07/02 10:46:47;;;;;;;8.98;7.93;;;27.10;99.90;;;;;;5013631;28;20175;-65
2021/07/02 10:49:14;;;;;;;8.23;7.43;;;27.80;99.90;;;;;;5013883;28;20238;-67
2021/07/02 10:51:52;;;;;;;8.65;7.78;;;28.00;99.90;;;;;;5013746;28;20652;-66
2021/07/02 10:54:23;;;;;;;8.75;8.05;;;28.20;99.90;;;;;;5014105;28;20180;-66
2021/07/02 10:56:58;;;;;;;8.18;7.43;;;28.20;99.90;;;;;;5013280;28;20175;-66
2021/07/02 10:59:36;;;;;;;7.88;7.22;;;28.00;99.90;;;;;;5013802;28;20199;-67
2021/07/02 11:02:05;;;;;;;8.73;7.93;;;27.70;99.90;;;;;;5013767;28;20225;-66
2021/07/02 11:04:44;;;;;;;9.32;8.48;;;27.30;99.90;;;;;;5012318;28;20176;-66
2021/07/02 11:07:32;;;;;;;8.32;7.53;;;26.80;99.90;;;;;;5013547;28;20263;-66
2021/07/02 11:09:59;;;;;;;9.85;8.95;;;26.10;99.90;;;;;;5012555;28;20283;-67
2021/07/02 11:12:30;;;;;;;8.32;7.63;;;25.60;99.90;;;;;;5011065;28;20264;-66
2021/07/02 11:15:01;;;;;;;8.65;7.85;;;25.80;99.90;;;;;;5013605;28;20203;-65
2021/07/02 11:17:32;;;;;;;9.88;8.98;;;26.00;99.90;;;;;;5013222;28;20692;-66
2021/07/02 11:20:04;;;;;;;7.78;7.18;;;26.30;99.90;;;;;;5013418;28;20207;-66
2021/07/02 11:22:34;;;;;;;8.13;7.43;;;26.20;99.90;;;;;;5012633;28;20207;-66
2021/07/02 11:25:21;;;;;;;8.75;8.05;;;25.90;99.90;;;;;;5013413;28;20187;-66
2021/07/02 11:27:54;;;;;;;10.73;8.38;;;25.90;99.90;;;;;;5012438;28;20176;-66
2021/07/02 11:30:34;;;;;;;8.40;7.50;;;25.80;99.90;;;;;;5015230;28;20215;-66
2021/07/02 11:33:07;;;;;;;8.48;7.78;;;26.50;99.90;;;;;;5027926;28;20182;-65
2021/07/02 11:36:02;;;;;;;10.35;8.15;;;27.00;99.90;;;;;;5032637;28;20167;-66
2021/07/02 11:38:29;;;;;;;8.30;7.60;;;26.70;99.90;;;;;;5019349;28;20196;-66
2021/07/02 11:40:57;;;;;;;9.00;8.20;;;26.20;99.90;;;;;;5011140;28;20218;-66
2021/07/02 11:43:39;;;;;;;9.02;8.32;;;25.80;99.90;;;;;;5010214;28;20558;-66
2021/07/02 11:46:13;;;;;;;8.48;7.68;;;25.70;99.90;;;;;;5012639;28;20634;-66
2021/07/02 11:48:46;;;;;;;9.10;8.30;;;25.90;99.90;;;;;;5012485;28;20258;-66
2021/07/02 11:51:17;;;;;;;8.45;7.55;;;26.20;99.90;;;;;;5012507;28;20184;-66
2021/07/02 11:53:44;;;;;;;7.20;6.60;;;26.40;99.90;;;;;;5011014;28;20230;-65
2021/07/02 11:56:21;;;;;;;8.13;7.43;;;26.60;99.90;;;;;;5012693;28;20646;-66
2021/07/02 11:58:48;;;;;;;8.75;7.72;;;26.40;99.90;;;;;;5012374;28;20180;-66
2021/07/02 12:01:17;;;;;;;7.85;7.15;;;26.10;99.90;;;;;;5010913;28;20243;-66
2021/07/02 12:03:45;;;;;;;7.47;6.68;;;25.70;99.90;;;;;;5012132;28;20572;-66
2021/07/02 12:06:17;;;;;;;7.85;7.15;;;25.80;99.90;;;;;;5011812;28;20259;-66
2021/07/02 12:08:48;;;;;;;7.32;6.65;;;26.30;99.90;;;;;;5011658;28;20545;-65
2021/07/02 12:11:14;;;;;;;8.55;7.82;;;27.00;99.90;;;;;;5001244;28;20266;-66
2021/07/02 12:13:39;;;;;;;7.18;6.57;;;27.20;99.90;;;;;;5012039;28;20255;-65
2021/07/02 12:16:10;;;;;;;7.25;6.65;;;27.10;99.90;;;;;;5011620;28;20263;-65
2021/07/02 12:18:37;;;;;;;7.07;6.47;;;27.00;99.90;;;;;;5010931;28;20677;-66
2021/07/02 12:21:06;;;;;;;7.50;6.90;;;26.70;99.90;;;;;;5012146;28;20354;-65
2021/07/02 12:23:36;;;;;;;7.90;7.25;;;26.10;99.90;;;;;;5011200;28;20209;-66
2021/07/02 12:26:16;;;;;;;8.85;8.00;;;25.70;99.90;;;;;;5011816;28;20176;-66
2021/07/02 12:29:06;;;;;;;7.00;6.50;;;26.30;99.90;;;;;;5012025;28;20638;-66
2021/07/02 12:31:39;;;;;;;8.10;7.30;;;27.00;99.90;;;;;;5009964;28;20191;-66
2021/07/02 12:34:10;;;;;;;11.50;10.70;;;27.20;99.90;;;;;;5011743;28;20183;-66
2021/07/02 12:37:00;;;;;;;8.73;8.02;;;27.90;99.90;;;;;;5011537;28;20187;-66
2021/07/02 12:39:38;;;;;;;7.30;6.80;;;28.50;99.90;;;;;;5011487;28;20645;-66
2021/07/02 12:42:16;;;;;;;8.38;7.57;;;29.30;99.90;;;;;;5011963;28;20246;-66
2021/07/02 12:44:47;;;;;;;7.80;7.10;;;29.90;99.90;;;;;;5011497;28;20179;-65